sensor_id;sensor_type;location;lat;lon;timestamp;P1;durP1;ratioP1;P2;durP2;ratioP2
2480;SDS011;57396;48.742;9.128;2022-08-19T00:01:30;14.67;;;12.07;;
2480;SDS011;57396;48.742;9.128;2022-08-19T00:04:00;15.27;;;13.00;;
2480;SDS011;57396;48.742;9.128;2022-08-19T00:06:28;13.43;;;12.10;;
2480;SDS011;57396;48.742;9.128;2022-08-19T00:08:54;14.50;;;12.27;;
2480;SDS011;57396;48.742;9.128;2022-08-19T00:11:20;14.30;;;12.93;;
2480;SDS011;57396;48.742;9.128;2022-08-19T00:13:46;13.93;;;12.53;;
2480;SDS011;57396;48.742;9.128;2022-08-19T00:16:13;13.47;;;12.10;;
2480;SDS011;57396;48.742;9.128;2022-08-19T00:18:39;13.43;;;12.13;;
2480;SDS011;57396;48.742;9.128;2022-08-19T00:21:05;13.97;;;12.67;;
2480;SDS011;57396;48.742;9.128;2022-08-19T00:23:34;14.20;;;12.73;;
2480;SDS011;57396;48.742;9.128;2022-08-19T00:26:02;13.93;;;12.53;;
2480;SDS011;57396;48.742;9.128;2022-08-19T00:28:30;14.63;;;12.87;;
2480;SDS011;57396;48.742;9.128;2022-08-19T00:30:56;13.97;;;12.57;;
2480;SDS011;57396;48.742;9.128;2022-08-19T00:33:22;14.40;;;12.97;;
2480;SDS011;57396;48.742;9.128;2022-08-19T00:35:47;17.07;;;13.63;;
2480;SDS011;57396;48.742;9.128;2022-08-19T00:38:13;14.23;;;12.80;;
2480;SDS011;57396;48.742;9.128;2022-08-19T00:40:39;14.07;;;12.73;;
2480;SDS011;57396;48.742;9.128;2022-08-19T00:43:09;14.10;;;12.60;;
2480;SDS011;57396;48.742;9.128;2022-08-19T00:45:35;14.83;;;13.00;;
2480;SDS011;57396;48.742;9.128;2022-08-19T00:48:01;14.23;;;12.83;;
2480;SDS011;57396;48.742;9.128;2022-08-19T00:50:29;13.87;;;12.40;;
2480;SDS011;57396;48.742;9.128;2022-08-19T00:52:55;15.87;;;13.57;;
2480;SDS011;57396;48.742;9.128;2022-08-19T00:55:23;13.80;;;12.40;;
2480;SDS011;57396;48.742;9.128;2022-08-19T00:57:55;17.60;;;12.53;;
2480;SDS011;57396;48.742;9.128;2022-08-19T01:00:24;18.10;;;13.60;;
2480;SDS011;57396;48.742;9.128;2022-08-19T01:02:51;17.00;;;14.03;;
2480;SDS011;57396;48.742;9.128;2022-08-19T01:05:18;18.53;;;14.40;;
2480;SDS011;57396;48.742;9.128;2022-08-19T01:07:46;15.43;;;13.83;;
2480;SDS011;57396;48.742;9.128;2022-08-19T01:10:14;16.00;;;13.60;;
2480;SDS011;57396;48.742;9.128;2022-08-19T01:12:44;16.27;;;13.83;;
2480;SDS011;57396;48.742;9.128;2022-08-19T01:15:12;15.67;;;13.97;;
2480;SDS011;57396;48.742;9.128;2022-08-19T01:17:40;15.47;;;13.77;;
2480;SDS011;57396;48.742;9.128;2022-08-19T01:20:07;15.30;;;13.70;;
2480;SDS011;57396;48.742;9.128;2022-08-19T01:22:41;15.33;;;13.83;;
2480;SDS011;57396;48.742;9.128;2022-08-19T01:25:09;15.87;;;13.30;;
2480;SDS011;57396;48.742;9.128;2022-08-19T01:27:38;15.77;;;13.40;;
2480;SDS011;57396;48.742;9.128;2022-08-19T01:30:06;15.23;;;13.63;;
2480;SDS011;57396;48.742;9.128;2022-08-19T01:32:32;17.07;;;15.03;;
2480;SDS011;57396;48.742;9.128;2022-08-19T01:34:58;20.17;;;14.93;;
2480;SDS011;57396;48.742;9.128;2022-08-19T01:37:27;18.27;;;15.23;;
2480;SDS011;57396;48.742;9.128;2022-08-19T01:39:53;19.67;;;14.97;;
2480;SDS011;57396;48.742;9.128;2022-08-19T01:42:19;15.90;;;12.43;;
2480;SDS011;57396;48.742;9.128;2022-08-19T01:44:45;16.07;;;14.37;;
2480;SDS011;57396;48.742;9.128;2022-08-19T01:47:10;15.53;;;13.90;;
2480;SDS011;57396;48.742;9.128;2022-08-19T01:49:36;17.70;;;13.80;;
2480;SDS011;57396;48.742;9.128;2022-08-19T01:52:02;17.00;;;13.90;;
2480;SDS011;57396;48.742;9.128;2022-08-19T01:54:28;19.03;;;14.17;;
2480;SDS011;57396;48.742;9.128;2022-08-19T01:56:55;18.13;;;13.77;;
2480;SDS011;57396;48.742;9.128;2022-08-19T01:59:24;18.03;;;14.60;;
2480;SDS011;57396;48.742;9.128;2022-08-19T02:01:49;15.50;;;13.90;;
2480;SDS011;57396;48.742;9.128;2022-08-19T02:04:15;20.33;;;14.63;;
2480;SDS011;57396;48.742;9.128;2022-08-19T02:06:41;17.70;;;14.50;;
2480;SDS011;57396;48.742;9.128;2022-08-19T02:09:07;16.50;;;14.80;;
2480;SDS011;57396;48.742;9.128;2022-08-19T02:11:34;18.20;;;13.70;;
2480;SDS011;57396;48.742;9.128;2022-08-19T02:14:04;17.83;;;14.40;;
2480;SDS011;57396;48.742;9.128;2022-08-19T02:16:31;16.70;;;14.70;;
2480;SDS011;57396;48.742;9.128;2022-08-19T02:18:57;17.53;;;14.87;;
2480;SDS011;57396;48.742;9.128;2022-08-19T02:21:25;20.27;;;15.23;;
2480;SDS011;57396;48.742;9.128;2022-08-19T02:23:51;20.80;;;15.40;;
2480;SDS011;57396;48.742;9.128;2022-08-19T02:26:16;18.30;;;15.50;;
2480;SDS011;57396;48.742;9.128;2022-08-19T02:28:42;18.97;;;15.97;;
2480;SDS011;57396;48.742;9.128;2022-08-19T02:31:12;17.57;;;15.20;;
2480;SDS011;57396;48.742;9.128;2022-08-19T02:33:40;21.77;;;16.17;;
2480;SDS011;57396;48.742;9.128;2022-08-19T02:36:06;17.90;;;14.97;;
2480;SDS011;57396;48.742;9.128;2022-08-19T02:38:32;17.83;;;15.60;;
2480;SDS011;57396;48.742;9.128;2022-08-19T02:41:02;19.10;;;16.30;;
2480;SDS011;57396;48.742;9.128;2022-08-19T02:43:30;18.47;;;15.87;;
2480;SDS011;57396;48.742;9.128;2022-08-19T02:45:56;22.40;;;16.50;;
2480;SDS011;57396;48.742;9.128;2022-08-19T02:48:22;19.03;;;17.03;;
2480;SDS011;57396;48.742;9.128;2022-08-19T02:50:49;21.97;;;16.20;;
2480;SDS011;57396;48.742;9.128;2022-08-19T02:53:20;20.53;;;16.20;;
2480;SDS011;57396;48.742;9.128;2022-08-19T02:55:47;17.70;;;15.90;;
2480;SDS011;57396;48.742;9.128;2022-08-19T02:58:13;19.00;;;16.13;;
2480;SDS011;57396;48.742;9.128;2022-08-19T03:00:46;20.60;;;17.27;;
2480;SDS011;57396;48.742;9.128;2022-08-19T03:03:14;17.40;;;15.60;;
2480;SDS011;57396;48.742;9.128;2022-08-19T03:05:40;23.47;;;17.73;;
2480;SDS011;57396;48.742;9.128;2022-08-19T03:08:07;21.13;;;18.00;;
2480;SDS011;57396;48.742;9.128;2022-08-19T03:10:39;18.53;;;16.40;;
2480;SDS011;57396;48.742;9.128;2022-08-19T03:13:09;18.87;;;16.50;;
2480;SDS011;57396;48.742;9.128;2022-08-19T03:15:42;20.37;;;18.00;;
2480;SDS011;57396;48.742;9.128;2022-08-19T03:18:09;18.73;;;16.37;;
2480;SDS011;57396;48.742;9.128;2022-08-19T03:20:39;22.77;;;18.00;;
2480;SDS011;57396;48.742;9.128;2022-08-19T03:23:06;22.37;;;17.50;;
2480;SDS011;57396;48.742;9.128;2022-08-19T03:25:35;19.40;;;17.27;;
2480;SDS011;57396;48.742;9.128;2022-08-19T03:28:02;18.47;;;16.47;;
2480;SDS011;57396;48.742;9.128;2022-08-19T03:30:28;20.53;;;17.53;;
2480;SDS011;57396;48.742;9.128;2022-08-19T03:32:53;19.70;;;17.63;;
2480;SDS011;57396;48.742;9.128;2022-08-19T03:35:19;21.03;;;18.00;;
2480;SDS011;57396;48.742;9.128;2022-08-19T03:37:45;22.10;;;18.30;;
2480;SDS011;57396;48.742;9.128;2022-08-19T03:40:10;20.60;;;17.97;;
2480;SDS011;57396;48.742;9.128;2022-08-19T03:42:36;20.63;;;18.13;;
2480;SDS011;57396;48.742;9.128;2022-08-19T03:45:01;24.63;;;17.40;;
2480;SDS011;57396;48.742;9.128;2022-08-19T03:47:27;21.23;;;18.50;;
2480;SDS011;57396;48.742;9.128;2022-08-19T03:49:53;21.43;;;18.23;;
2480;SDS011;57396;48.742;9.128;2022-08-19T03:52:18;20.03;;;17.90;;
2480;SDS011;57396;48.742;9.128;2022-08-19T03:54:44;20.53;;;18.33;;
2480;SDS011;57396;48.742;9.128;2022-08-19T03:57:10;20.00;;;17.17;;
2480;SDS011;57396;48.742;9.128;2022-08-19T03:59:36;23.03;;;18.80;;
2480;SDS011;57396;48.742;9.128;2022-08-19T04:02:05;20.10;;;18.03;;
2480;SDS011;57396;48.742;9.128;2022-08-19T04:04:34;20.90;;;18.27;;
2480;SDS011;57396;48.742;9.128;2022-08-19T04:07:01;23.57;;;18.83;;
2480;SDS011;57396;48.742;9.128;2022-08-19T04:09:26;22.17;;;19.40;;
2480;SDS011;57396;48.742;9.128;2022-08-19T04:11:53;22.70;;;19.00;;
2480;SDS011;57396;48.742;9.128;2022-08-19T04:14:20;22.00;;;17.73;;
2480;SDS011;57396;48.742;9.128;2022-08-19T04:16:49;20.50;;;18.40;;
2480;SDS011;57396;48.742;9.128;2022-08-19T04:19:15;24.87;;;19.90;;
2480;SDS011;57396;48.742;9.128;2022-08-19T04:21:43;22.23;;;19.83;;
2480;SDS011;57396;48.742;9.128;2022-08-19T04:24:10;24.37;;;19.87;;
2480;SDS011;57396;48.742;9.128;2022-08-19T04:26:35;24.80;;;18.40;;
2480;SDS011;57396;48.742;9.128;2022-08-19T04:29:04;21.63;;;19.20;;
2480;SDS011;57396;48.742;9.128;2022-08-19T04:31:32;24.93;;;18.33;;
2480;SDS011;57396;48.742;9.128;2022-08-19T04:34:01;24.00;;;20.10;;
2480;SDS011;57396;48.742;9.128;2022-08-19T04:36:30;24.03;;;20.00;;
2480;SDS011;57396;48.742;9.128;2022-08-19T04:38:58;25.80;;;21.43;;
2480;SDS011;57396;48.742;9.128;2022-08-19T04:41:26;24.77;;;19.47;;
2480;SDS011;57396;48.742;9.128;2022-08-19T04:44:10;23.40;;;20.30;;
2480;SDS011;57396;48.742;9.128;2022-08-19T04:46:36;24.40;;;19.67;;
2480;SDS011;57396;48.742;9.128;2022-08-19T04:49:03;22.57;;;20.17;;
2480;SDS011;57396;48.742;9.128;2022-08-19T04:51:30;30.43;;;20.33;;
2480;SDS011;57396;48.742;9.128;2022-08-19T04:53:56;23.50;;;20.73;;
2480;SDS011;57396;48.742;9.128;2022-08-19T04:56:22;24.00;;;20.63;;
2480;SDS011;57396;48.742;9.128;2022-08-19T04:58:48;25.40;;;20.00;;
2480;SDS011;57396;48.742;9.128;2022-08-19T05:01:26;24.87;;;19.77;;
2480;SDS011;57396;48.742;9.128;2022-08-19T05:03:57;26.63;;;20.07;;
2480;SDS011;57396;48.742;9.128;2022-08-19T05:06:23;26.17;;;19.80;;
2480;SDS011;57396;48.742;9.128;2022-08-19T05:08:50;22.97;;;20.47;;
2480;SDS011;57396;48.742;9.128;2022-08-19T05:11:17;20.53;;;18.13;;
2480;SDS011;57396;48.742;9.128;2022-08-19T05:13:45;23.37;;;18.83;;
2480;SDS011;57396;48.742;9.128;2022-08-19T05:16:11;23.30;;;20.47;;
2480;SDS011;57396;48.742;9.128;2022-08-19T05:18:38;27.17;;;20.00;;
2480;SDS011;57396;48.742;9.128;2022-08-19T05:21:23;22.20;;;19.07;;
2480;SDS011;57396;48.742;9.128;2022-08-19T05:24:07;22.70;;;20.23;;
2480;SDS011;57396;48.742;9.128;2022-08-19T05:26:39;27.20;;;20.93;;
2480;SDS011;57396;48.742;9.128;2022-08-19T05:29:06;22.50;;;18.73;;
2480;SDS011;57396;48.742;9.128;2022-08-19T05:31:33;26.10;;;21.20;;
2480;SDS011;57396;48.742;9.128;2022-08-19T05:33:59;23.93;;;20.47;;
2480;SDS011;57396;48.742;9.128;2022-08-19T05:36:27;22.03;;;19.70;;
2480;SDS011;57396;48.742;9.128;2022-08-19T05:38:54;20.03;;;17.83;;
2480;SDS011;57396;48.742;9.128;2022-08-19T05:41:20;21.73;;;18.83;;
2480;SDS011;57396;48.742;9.128;2022-08-19T05:43:48;21.47;;;19.17;;
2480;SDS011;57396;48.742;9.128;2022-08-19T05:46:16;21.40;;;18.97;;
2480;SDS011;57396;48.742;9.128;2022-08-19T05:48:43;20.23;;;18.10;;
2480;SDS011;57396;48.742;9.128;2022-08-19T05:51:09;20.33;;;18.20;;
2480;SDS011;57396;48.742;9.128;2022-08-19T05:53:36;23.67;;;18.90;;
2480;SDS011;57396;48.742;9.128;2022-08-19T05:56:05;23.53;;;19.50;;
2480;SDS011;57396;48.742;9.128;2022-08-19T05:58:32;26.80;;;19.83;;
2480;SDS011;57396;48.742;9.128;2022-08-19T06:00:58;22.57;;;18.90;;
2480;SDS011;57396;48.742;9.128;2022-08-19T06:03:29;20.63;;;18.43;;
2480;SDS011;57396;48.742;9.128;2022-08-19T06:05:55;22.27;;;17.70;;
2480;SDS011;57396;48.742;9.128;2022-08-19T06:08:21;23.67;;;19.27;;
2480;SDS011;57396;48.742;9.128;2022-08-19T06:10:46;24.70;;;18.47;;
2480;SDS011;57396;48.742;9.128;2022-08-19T06:13:12;21.43;;;18.10;;
2480;SDS011;57396;48.742;9.128;2022-08-19T06:15:37;20.27;;;17.83;;
2480;SDS011;57396;48.742;9.128;2022-08-19T06:18:03;26.50;;;18.60;;
2480;SDS011;57396;48.742;9.128;2022-08-19T06:20:28;23.57;;;19.20;;
2480;SDS011;57396;48.742;9.128;2022-08-19T06:22:54;21.20;;;18.10;;
2480;SDS011;57396;48.742;9.128;2022-08-19T06:25:20;19.93;;;17.83;;
2480;SDS011;57396;48.742;9.128;2022-08-19T06:27:45;20.60;;;18.40;;
2480;SDS011;57396;48.742;9.128;2022-08-19T06:30:11;20.10;;;17.77;;
2480;SDS011;57396;48.742;9.128;2022-08-19T06:32:37;19.97;;;17.87;;
2480;SDS011;57396;48.742;9.128;2022-08-19T06:35:02;25.73;;;19.17;;
2480;SDS011;57396;48.742;9.128;2022-08-19T06:37:29;19.27;;;17.10;;
2480;SDS011;57396;48.742;9.128;2022-08-19T06:39:55;21.07;;;16.90;;
2480;SDS011;57396;48.742;9.128;2022-08-19T06:42:20;22.07;;;18.10;;
2480;SDS011;57396;48.742;9.128;2022-08-19T06:44:46;19.90;;;17.50;;
2480;SDS011;57396;48.742;9.128;2022-08-19T06:47:14;20.57;;;18.37;;
2480;SDS011;57396;48.742;9.128;2022-08-19T06:49:44;20.73;;;17.73;;
2480;SDS011;57396;48.742;9.128;2022-08-19T06:52:10;20.10;;;18.00;;
2480;SDS011;57396;48.742;9.128;2022-08-19T06:54:40;20.47;;;17.60;;
2480;SDS011;57396;48.742;9.128;2022-08-19T06:57:07;19.83;;;17.73;;
2480;SDS011;57396;48.742;9.128;2022-08-19T06:59:34;27.43;;;18.40;;
2480;SDS011;57396;48.742;9.128;2022-08-19T07:02:01;23.60;;;17.43;;
2480;SDS011;57396;48.742;9.128;2022-08-19T07:04:30;21.80;;;18.83;;
2480;SDS011;57396;48.742;9.128;2022-08-19T07:09:33;21.43;;;17.80;;
2480;SDS011;57396;48.742;9.128;2022-08-19T07:11:59;23.43;;;18.60;;
2480;SDS011;57396;48.742;9.128;2022-08-19T07:14:26;24.10;;;19.20;;
2480;SDS011;57396;48.742;9.128;2022-08-19T07:16:54;32.10;;;19.60;;
2480;SDS011;57396;48.742;9.128;2022-08-19T07:19:20;21.17;;;18.43;;
2480;SDS011;57396;48.742;9.128;2022-08-19T07:21:48;19.43;;;17.43;;
2480;SDS011;57396;48.742;9.128;2022-08-19T07:24:15;25.30;;;20.30;;
2480;SDS011;57396;48.742;9.128;2022-08-19T07:26:42;23.63;;;19.00;;
2480;SDS011;57396;48.742;9.128;2022-08-19T07:29:08;20.83;;;18.63;;
2480;SDS011;57396;48.742;9.128;2022-08-19T07:31:34;19.80;;;16.73;;
2480;SDS011;57396;48.742;9.128;2022-08-19T07:34:02;24.73;;;17.63;;
2480;SDS011;57396;48.742;9.128;2022-08-19T07:36:32;24.80;;;19.33;;
2480;SDS011;57396;48.742;9.128;2022-08-19T07:38:59;20.80;;;18.20;;
2480;SDS011;57396;48.742;9.128;2022-08-19T07:41:26;22.80;;;17.97;;
2480;SDS011;57396;48.742;9.128;2022-08-19T07:43:53;22.10;;;18.50;;
2480;SDS011;57396;48.742;9.128;2022-08-19T07:46:19;22.83;;;18.30;;
2480;SDS011;57396;48.742;9.128;2022-08-19T07:48:45;21.63;;;18.73;;
2480;SDS011;57396;48.742;9.128;2022-08-19T07:51:12;19.40;;;17.17;;
2480;SDS011;57396;48.742;9.128;2022-08-19T07:53:39;23.20;;;18.20;;
2480;SDS011;57396;48.742;9.128;2022-08-19T07:56:04;22.60;;;17.20;;
2480;SDS011;57396;48.742;9.128;2022-08-19T07:58:31;21.10;;;18.70;;
2480;SDS011;57396;48.742;9.128;2022-08-19T08:00:59;23.50;;;19.00;;
2480;SDS011;57396;48.742;9.128;2022-08-19T08:03:25;22.17;;;18.60;;
2480;SDS011;57396;48.742;9.128;2022-08-19T08:06:11;19.93;;;16.73;;
2480;SDS011;57396;48.742;9.128;2022-08-19T08:08:56;21.40;;;17.30;;
2480;SDS011;57396;48.742;9.128;2022-08-19T08:11:45;19.40;;;17.30;;
2480;SDS011;57396;48.742;9.128;2022-08-19T08:14:14;18.83;;;15.97;;
2480;SDS011;57396;48.742;9.128;2022-08-19T08:17:07;25.40;;;17.50;;
2480;SDS011;57396;48.742;9.128;2022-08-19T08:19:33;19.73;;;16.50;;
2480;SDS011;57396;48.742;9.128;2022-08-19T08:21:59;21.20;;;16.93;;
2480;SDS011;57396;48.742;9.128;2022-08-19T08:24:27;20.50;;;18.33;;
2480;SDS011;57396;48.742;9.128;2022-08-19T08:26:54;23.83;;;16.97;;
2480;SDS011;57396;48.742;9.128;2022-08-19T08:29:19;21.73;;;17.73;;
2480;SDS011;57396;48.742;9.128;2022-08-19T08:31:45;20.50;;;17.60;;
2480;SDS011;57396;48.742;9.128;2022-08-19T08:34:12;19.10;;;17.10;;
2480;SDS011;57396;48.742;9.128;2022-08-19T08:36:42;25.63;;;17.27;;
2480;SDS011;57396;48.742;9.128;2022-08-19T08:39:10;19.00;;;17.00;;
2480;SDS011;57396;48.742;9.128;2022-08-19T08:44:17;20.77;;;17.63;;
2480;SDS011;57396;48.742;9.128;2022-08-19T08:46:55;23.83;;;18.67;;
2480;SDS011;57396;48.742;9.128;2022-08-19T08:49:29;20.40;;;17.53;;
2480;SDS011;57396;48.742;9.128;2022-08-19T08:52:04;22.90;;;17.90;;
2480;SDS011;57396;48.742;9.128;2022-08-19T08:54:32;23.90;;;17.10;;
2480;SDS011;57396;48.742;9.128;2022-08-19T08:57:02;21.17;;;17.53;;
2480;SDS011;57396;48.742;9.128;2022-08-19T08:59:36;20.70;;;18.33;;
2480;SDS011;57396;48.742;9.128;2022-08-19T09:02:03;20.30;;;18.10;;
2480;SDS011;57396;48.742;9.128;2022-08-19T09:04:29;21.03;;;18.07;;
2480;SDS011;57396;48.742;9.128;2022-08-19T09:06:58;22.63;;;17.67;;
2480;SDS011;57396;48.742;9.128;2022-08-19T09:14:43;22.53;;;17.27;;
2480;SDS011;57396;48.742;9.128;2022-08-19T09:17:12;20.43;;;16.87;;
2480;SDS011;57396;48.742;9.128;2022-08-19T09:20:39;19.80;;;17.70;;
2480;SDS011;57396;48.742;9.128;2022-08-19T09:22:42;18.10;;;16.30;;
2480;SDS011;57396;48.742;9.128;2022-08-19T09:25:10;26.00;;;19.57;;
2480;SDS011;57396;48.742;9.128;2022-08-19T09:27:37;19.20;;;17.20;;
2480;SDS011;57396;48.742;9.128;2022-08-19T09:30:05;20.03;;;17.03;;
2480;SDS011;57396;48.742;9.128;2022-08-19T09:32:32;18.03;;;16.00;;
2480;SDS011;57396;48.742;9.128;2022-08-19T09:34:58;19.10;;;15.40;;
2480;SDS011;57396;48.742;9.128;2022-08-19T09:37:25;19.43;;;15.93;;
2480;SDS011;57396;48.742;9.128;2022-08-19T09:39:51;21.73;;;17.60;;
2480;SDS011;57396;48.742;9.128;2022-08-19T09:42:17;21.53;;;17.70;;
2480;SDS011;57396;48.742;9.128;2022-08-19T09:44:43;18.20;;;15.57;;
2480;SDS011;57396;48.742;9.128;2022-08-19T09:47:10;23.20;;;15.67;;
2480;SDS011;57396;48.742;9.128;2022-08-19T09:49:36;20.17;;;15.63;;
2480;SDS011;57396;48.742;9.128;2022-08-19T09:52:02;16.97;;;15.27;;
2480;SDS011;57396;48.742;9.128;2022-08-19T09:54:28;16.30;;;14.60;;
2480;SDS011;57396;48.742;9.128;2022-08-19T09:56:54;24.67;;;15.70;;
2480;SDS011;57396;48.742;9.128;2022-08-19T09:59:20;16.37;;;14.67;;
2480;SDS011;57396;48.742;9.128;2022-08-19T10:01:46;16.47;;;14.77;;
2480;SDS011;57396;48.742;9.128;2022-08-19T10:04:11;16.70;;;13.10;;
2480;SDS011;57396;48.742;9.128;2022-08-19T10:06:38;15.60;;;14.00;;
2480;SDS011;57396;48.742;9.128;2022-08-19T10:09:08;22.20;;;15.23;;
2480;SDS011;57396;48.742;9.128;2022-08-19T10:11:35;16.00;;;12.93;;
2480;SDS011;57396;48.742;9.128;2022-08-19T10:14:03;21.33;;;12.80;;
2480;SDS011;57396;48.742;9.128;2022-08-19T10:16:30;21.47;;;13.63;;
2480;SDS011;57396;48.742;9.128;2022-08-19T10:18:56;14.97;;;13.37;;
2480;SDS011;57396;48.742;9.128;2022-08-19T10:21:23;14.63;;;13.10;;
2480;SDS011;57396;48.742;9.128;2022-08-19T10:23:51;17.53;;;12.93;;
2480;SDS011;57396;48.742;9.128;2022-08-19T10:26:22;13.60;;;12.20;;
2480;SDS011;57396;48.742;9.128;2022-08-19T10:28:53;16.40;;;14.53;;
2480;SDS011;57396;48.742;9.128;2022-08-19T10:31:22;15.73;;;13.30;;
2480;SDS011;57396;48.742;9.128;2022-08-19T10:33:52;16.03;;;13.00;;
2480;SDS011;57396;48.742;9.128;2022-08-19T10:36:24;14.73;;;13.13;;
2480;SDS011;57396;48.742;9.128;2022-08-19T10:38:52;15.20;;;12.20;;
2480;SDS011;57396;48.742;9.128;2022-08-19T10:41:20;12.73;;;11.43;;
2480;SDS011;57396;48.742;9.128;2022-08-19T10:43:50;13.90;;;12.47;;
2480;SDS011;57396;48.742;9.128;2022-08-19T10:46:20;12.90;;;11.60;;
2480;SDS011;57396;48.742;9.128;2022-08-19T10:48:48;17.63;;;12.63;;
2480;SDS011;57396;48.742;9.128;2022-08-19T10:51:14;15.43;;;12.20;;
2480;SDS011;57396;48.742;9.128;2022-08-19T10:53:58;13.10;;;11.90;;
2480;SDS011;57396;48.742;9.128;2022-08-19T10:56:24;14.00;;;11.17;;
2480;SDS011;57396;48.742;9.128;2022-08-19T10:59:08;12.87;;;11.30;;
2480;SDS011;57396;48.742;9.128;2022-08-19T11:01:35;11.17;;;10.03;;
2480;SDS011;57396;48.742;9.128;2022-08-19T11:04:01;16.30;;;10.40;;
2480;SDS011;57396;48.742;9.128;2022-08-19T11:06:28;12.23;;;10.80;;
2480;SDS011;57396;48.742;9.128;2022-08-19T11:08:55;12.73;;;11.30;;
2480;SDS011;57396;48.742;9.128;2022-08-19T11:11:21;18.53;;;10.93;;
2480;SDS011;57396;48.742;9.128;2022-08-19T11:13:47;11.63;;;10.53;;
2480;SDS011;57396;48.742;9.128;2022-08-19T11:16:19;16.20;;;9.93;;
2480;SDS011;57396;48.742;9.128;2022-08-19T11:18:49;11.27;;;10.17;;
2480;SDS011;57396;48.742;9.128;2022-08-19T11:21:23;11.00;;;9.00;;
2480;SDS011;57396;48.742;9.128;2022-08-19T11:23:54;10.73;;;8.73;;
2480;SDS011;57396;48.742;9.128;2022-08-19T11:26:21;10.73;;;9.63;;
2480;SDS011;57396;48.742;9.128;2022-08-19T11:28:48;12.00;;;9.63;;
2480;SDS011;57396;48.742;9.128;2022-08-19T11:31:15;17.60;;;10.00;;
2480;SDS011;57396;48.742;9.128;2022-08-19T11:33:42;11.10;;;9.90;;
2480;SDS011;57396;48.742;9.128;2022-08-19T11:36:07;10.40;;;9.30;;
2480;SDS011;57396;48.742;9.128;2022-08-19T11:38:33;13.40;;;10.17;;
2480;SDS011;57396;48.742;9.128;2022-08-19T11:41:06;10.03;;;9.00;;
2480;SDS011;57396;48.742;9.128;2022-08-19T11:43:32;12.30;;;9.37;;
2480;SDS011;57396;48.742;9.128;2022-08-19T11:45:58;10.63;;;9.53;;
2480;SDS011;57396;48.742;9.128;2022-08-19T11:48:24;15.97;;;9.80;;
2480;SDS011;57396;48.742;9.128;2022-08-19T11:50:51;10.43;;;9.40;;
2480;SDS011;57396;48.742;9.128;2022-08-19T11:53:20;10.23;;;9.20;;
2480;SDS011;57396;48.742;9.128;2022-08-19T11:55:46;12.10;;;9.30;;
2480;SDS011;57396;48.742;9.128;2022-08-19T11:58:12;13.40;;;9.77;;
2480;SDS011;57396;48.742;9.128;2022-08-19T12:00:39;11.23;;;9.13;;
2480;SDS011;57396;48.742;9.128;2022-08-19T12:03:05;9.90;;;8.53;;
2480;SDS011;57396;48.742;9.128;2022-08-19T12:05:30;13.63;;;9.37;;
2480;SDS011;57396;48.742;9.128;2022-08-19T12:07:56;11.17;;;9.53;;
2480;SDS011;57396;48.742;9.128;2022-08-19T12:10:22;12.47;;;8.87;;
2480;SDS011;57396;48.742;9.128;2022-08-19T12:12:48;12.67;;;8.80;;
2480;SDS011;57396;48.742;9.128;2022-08-19T12:15:13;10.37;;;9.33;;
2480;SDS011;57396;48.742;9.128;2022-08-19T12:17:39;16.27;;;9.60;;
2480;SDS011;57396;48.742;9.128;2022-08-19T12:20:08;11.00;;;8.60;;
2480;SDS011;57396;48.742;9.128;2022-08-19T12:22:38;11.40;;;9.10;;
2480;SDS011;57396;48.742;9.128;2022-08-19T12:25:06;10.50;;;8.70;;
2480;SDS011;57396;48.742;9.128;2022-08-19T12:27:33;10.60;;;8.40;;
2480;SDS011;57396;48.742;9.128;2022-08-19T12:29:58;8.73;;;7.83;;
2480;SDS011;57396;48.742;9.128;2022-08-19T12:32:26;8.00;;;7.30;;
2480;SDS011;57396;48.742;9.128;2022-08-19T12:34:51;12.63;;;8.43;;
2480;SDS011;57396;48.742;9.128;2022-08-19T12:37:17;9.57;;;8.17;;
2480;SDS011;57396;48.742;9.128;2022-08-19T12:39:42;11.53;;;7.83;;
2480;SDS011;57396;48.742;9.128;2022-08-19T12:42:09;11.03;;;8.67;;
2480;SDS011;57396;48.742;9.128;2022-08-19T12:44:37;9.20;;;8.23;;
2480;SDS011;57396;48.742;9.128;2022-08-19T12:47:04;11.03;;;8.40;;
2480;SDS011;57396;48.742;9.128;2022-08-19T12:49:31;9.40;;;8.50;;
2480;SDS011;57396;48.742;9.128;2022-08-19T12:51:59;12.57;;;8.30;;
2480;SDS011;57396;48.742;9.128;2022-08-19T12:54:32;9.73;;;8.73;;
2480;SDS011;57396;48.742;9.128;2022-08-19T12:56:58;9.00;;;8.10;;
2480;SDS011;57396;48.742;9.128;2022-08-19T12:59:24;13.77;;;9.10;;
2480;SDS011;57396;48.742;9.128;2022-08-19T13:01:50;10.10;;;9.07;;
2480;SDS011;57396;48.742;9.128;2022-08-19T13:04:15;15.23;;;9.73;;
2480;SDS011;57396;48.742;9.128;2022-08-19T13:06:41;11.80;;;10.60;;
2480;SDS011;57396;48.742;9.128;2022-08-19T13:09:07;20.87;;;12.10;;
2480;SDS011;57396;48.742;9.128;2022-08-19T13:11:33;15.43;;;13.90;;
2480;SDS011;57396;48.742;9.128;2022-08-19T13:13:59;16.77;;;15.07;;
2480;SDS011;57396;48.742;9.128;2022-08-19T13:16:26;23.03;;;17.80;;
2480;SDS011;57396;48.742;9.128;2022-08-19T13:18:53;24.00;;;18.17;;
2480;SDS011;57396;48.742;9.128;2022-08-19T13:21:20;25.57;;;16.90;;
2480;SDS011;57396;48.742;9.128;2022-08-19T13:23:48;19.83;;;17.07;;
2480;SDS011;57396;48.742;9.128;2022-08-19T13:26:13;21.17;;;18.03;;
2480;SDS011;57396;48.742;9.128;2022-08-19T13:28:40;20.00;;;17.67;;
2480;SDS011;57396;48.742;9.128;2022-08-19T13:31:25;23.53;;;19.53;;
2480;SDS011;57396;48.742;9.128;2022-08-19T13:34:10;23.90;;;19.87;;
2480;SDS011;57396;48.742;9.128;2022-08-19T13:36:36;23.53;;;19.93;;
2480;SDS011;57396;48.742;9.128;2022-08-19T13:39:03;24.73;;;21.70;;
2480;SDS011;57396;48.742;9.128;2022-08-19T13:41:29;37.00;;;21.90;;
2480;SDS011;57396;48.742;9.128;2022-08-19T13:43:55;25.33;;;20.90;;
2480;SDS011;57396;48.742;9.128;2022-08-19T13:46:20;30.47;;;22.27;;
2480;SDS011;57396;48.742;9.128;2022-08-19T13:48:46;29.03;;;23.00;;
2480;SDS011;57396;48.742;9.128;2022-08-19T13:51:16;23.40;;;20.73;;
2480;SDS011;57396;48.742;9.128;2022-08-19T13:53:42;26.97;;;21.47;;
2480;SDS011;57396;48.742;9.128;2022-08-19T13:56:14;24.07;;;20.50;;
2480;SDS011;57396;48.742;9.128;2022-08-19T13:58:41;24.60;;;21.97;;
2480;SDS011;57396;48.742;9.128;2022-08-19T14:01:06;25.93;;;23.23;;
2480;SDS011;57396;48.742;9.128;2022-08-19T14:03:34;26.03;;;23.33;;
2480;SDS011;57396;48.742;9.128;2022-08-19T14:06:00;25.77;;;21.43;;
2480;SDS011;57396;48.742;9.128;2022-08-19T14:08:26;24.03;;;20.57;;
2480;SDS011;57396;48.742;9.128;2022-08-19T14:10:53;28.70;;;22.53;;
2480;SDS011;57396;48.742;9.128;2022-08-19T14:13:20;26.90;;;21.27;;
2480;SDS011;57396;48.742;9.128;2022-08-19T14:15:47;29.20;;;24.40;;
2480;SDS011;57396;48.742;9.128;2022-08-19T14:18:13;28.27;;;22.10;;
2480;SDS011;57396;48.742;9.128;2022-08-19T14:20:39;25.03;;;22.37;;
2480;SDS011;57396;48.742;9.128;2022-08-19T14:23:04;26.23;;;20.47;;
2480;SDS011;57396;48.742;9.128;2022-08-19T14:25:31;22.93;;;20.50;;
2480;SDS011;57396;48.742;9.128;2022-08-19T14:27:57;23.83;;;20.90;;
2480;SDS011;57396;48.742;9.128;2022-08-19T14:30:24;23.57;;;21.07;;
2480;SDS011;57396;48.742;9.128;2022-08-19T14:32:52;22.33;;;20.07;;
2480;SDS011;57396;48.742;9.128;2022-08-19T14:35:19;28.10;;;22.13;;
2480;SDS011;57396;48.742;9.128;2022-08-19T14:37:47;22.27;;;19.97;;
2480;SDS011;57396;48.742;9.128;2022-08-19T14:40:13;22.23;;;19.93;;
2480;SDS011;57396;48.742;9.128;2022-08-19T14:42:40;22.63;;;18.73;;
2480;SDS011;57396;48.742;9.128;2022-08-19T14:45:07;23.70;;;19.53;;
2480;SDS011;57396;48.742;9.128;2022-08-19T14:47:33;22.33;;;17.23;;
2480;SDS011;57396;48.742;9.128;2022-08-19T14:49:58;19.90;;;17.80;;